Time;durP1;ratioP1;P1;durP2;ratioP2;P2;SDS_P1;SDS_P2;PMS_P1;PMS_P2;Temp;Humidity;BMP_temperature;BMP_pressure;BME280_temperature;BME280_humidity;BME280_pressure;Samples;Min_cycle;Max_cycle;Signal;HPM_P1;HPM_P2
2023/01/09 00:00:14;;;;;;;2.37;1.60;;;;;;;24.86;40.13;98028.03;1878792;75;28144;-45
2023/01/09 00:03:03;;;;;;;1.80;1.67;;;;;;;24.87;40.10;98014.58;1868288;75;34081;-49
2023/01/09 00:05:51;;;;;;;3.42;1.98;;;;;;;24.85;40.18;98020.37;1843555;77;28181;-46
2023/01/09 00:08:40;;;;;;;2.30;1.80;;;;;;;24.87;40.17;98037.92;1849495;75;28715;-47
2023/01/09 00:11:29;;;;;;;2.45;1.70;;;;;;;24.83;40.25;98042.35;1845416;76;28105;-50
2023/01/09 00:14:18;;;;;;;3.27;1.90;;;;;;;24.83;40.29;98038.23;1850039;77;28176;-49
2023/01/09 00:17:07;;;;;;;3.12;1.90;;;;;;;24.85;40.27;98041.52;1858008;76;28171;-48
2023/01/09 00:19:57;;;;;;;3.72;1.75;;;;;;;24.84;40.29;98049.47;1859285;76;28250;-49
2023/01/09 00:22:46;;;;;;;3.20;1.93;;;;;;;24.83;40.30;98067.90;1868681;76;28113;-45
2023/01/09 00:25:35;;;;;;;2.00;1.50;;;;;;;24.82;40.29;98066.79;1865917;76;28144;-49
2023/01/09 00:28:23;;;;;;;2.92;1.70;;;;;;;24.78;40.23;98099.51;1871510;74;28235;-47
2023/01/09 00:31:13;;;;;;;3.75;1.80;;;;;;;24.76;40.14;98115.45;1858370;76;28281;-47
2023/01/09 00:34:04;;;;;;;1.93;1.60;;;;;;;24.72;40.08;98082.73;1871822;74;28132;-48
2023/01/09 00:36:55;;;;;;;2.67;1.85;;;;;;;24.72;40.08;98082.73;1857632;76;28457;-49
2023/01/09 00:39:44;;;;;;;2.77;1.65;;;;;;;24.77;39.93;98118.45;1856619;76;28088;-47
2023/01/09 00:42:35;;;;;;;2.08;1.82;;;;;;;24.75;39.90;98116.51;1868574;76;28137;-47
2023/01/09 00:45:27;;;;;;;1.98;1.72;;;;;;;24.76;39.91;98110.47;1841324;77;28129;-47
2023/01/09 00:48:23;;;;;;;1.72;1.60;;;;;;;24.74;39.85;98097.83;1854018;74;28157;-47
2023/01/09 00:51:09;;;;;;;1.90;1.40;;;;;;;24.76;39.78;98102.23;1859429;76;28199;-46
2023/01/09 00:53:57;;;;;;;1.90;1.57;;;;;;;24.71;39.81;98116.23;1868377;76;28149;-47
2023/01/09 00:56:46;;;;;;;2.87;1.60;;;;;;;24.73;39.81;98120.09;1856825;76;28148;-46
2023/01/09 00:59:35;;;;;;;2.55;1.60;;;;;;;24.76;39.75;98110.47;1855180;76;28249;-48
2023/01/09 01:02:23;;;;;;;1.60;1.50;;;;;;;24.76;39.73;98103.09;1868759;76;28274;-49
2023/01/09 01:08:19;;;;;;;3.12;1.70;;;;;;;24.72;39.71;98124.75;1870637;74;28201;-49
2023/01/09 01:11:10;;;;;;;1.60;1.50;;;;;;;24.71;39.70;98117.61;1865590;75;28122;-46
2023/01/09 01:13:58;;;;;;;4.15;1.60;;;;;;;24.71;39.65;98127.22;1875820;74;28233;-49
2023/01/09 01:16:47;;;;;;;3.52;1.57;;;;;;;24.71;39.64;98128.59;1873320;75;28155;-48
2023/01/09 01:19:36;;;;;;;5.55;1.57;;;;;;;24.72;39.57;98112.39;1891348;74;28145;-49
2023/01/09 01:22:24;;;;;;;1.42;1.32;;;;;;;24.72;39.62;98122.55;1884364;75;28142;-46
2023/01/09 01:25:16;;;;;;;3.33;1.50;;;;;;;24.71;39.66;98120.35;1873106;75;28099;-49
2023/01/09 01:28:05;;;;;;;2.20;1.47;;;;;;;24.68;39.67;98105.83;1884093;75;28112;-48
2023/01/09 01:30:54;;;;;;;2.00;1.45;;;;;;;24.70;39.66;98121.47;1883789;75;28092;-49
2023/01/09 01:33:42;;;;;;;2.70;1.40;;;;;;;24.71;39.65;98134.08;1882932;74;28151;-45
2023/01/09 01:36:31;;;;;;;2.40;1.50;;;;;;;24.71;39.67;98139.58;1874294;75;28143;-48
2023/01/09 01:39:20;;;;;;;2.50;1.40;;;;;;;24.70;39.60;98152.22;1880200;75;28093;-47
2023/01/09 01:42:10;;;;;;;3.08;1.40;;;;;;;24.70;39.59;98177.77;1885494;75;28567;-45
2023/01/09 01:45:04;;;;;;;1.70;1.60;;;;;;;24.69;39.54;98203.57;1886390;75;28103;-45
2023/01/09 01:48:01;;;;;;;2.00;1.35;;;;;;;24.68;39.47;98225.83;1872992;75;32961;-46
2023/01/09 01:50:56;;;;;;;1.60;1.30;;;;;;;24.69;39.38;98238.47;1872610;75;28232;-46
2023/01/09 01:53:51;;;;;;;1.40;1.30;;;;;;;24.65;39.38;98238.73;1877577;75;28255;-49
2023/01/09 01:56:48;;;;;;;1.30;1.20;;;;;;;24.64;39.44;98236.53;1871039;75;28203;-48
2023/01/09 01:59:49;;;;;;;2.83;1.25;;;;;;;24.64;39.46;98231.61;1873874;74;28173;-46
2023/01/09 02:02:36;;;;;;;2.07;1.40;;;;;;;24.61;39.50;98232.16;1881992;75;28190;-48
2023/01/09 02:05:25;;;;;;;1.10;1.10;;;;;;;24.60;39.50;98229.95;1881016;75;28173;-50
2023/01/09 02:08:14;;;;;;;2.72;1.50;;;;;;;24.62;39.53;98238.73;1878716;75;28105;-48
2023/01/09 02:11:03;;;;;;;3.33;1.40;;;;;;;24.63;39.51;98258.24;1879361;75;28090;-49
2023/01/09 02:13:52;;;;;;;1.65;1.42;;;;;;;24.64;39.53;98266.73;1875373;74;28193;-51
2023/01/09 02:16:53;;;;;;;1.30;1.20;;;;;;;24.63;39.55;98278.01;1878775;74;28074;-46
2023/01/09 02:20:06;;;;;;;1.90;1.20;;;;;;;24.63;39.58;98284.88;1876991;75;28225;-48
2023/01/09 02:23:19;;;;;;;1.17;1.17;;;;;;;24.62;39.58;98305.21;1880622;75;28103;-46
2023/01/09 02:26:26;;;;;;;2.37;1.00;;;;;;;24.57;39.64;98314.28;1885723;75;28174;-47
2023/01/09 02:29:50;;;;;;;1.92;1.17;;;;;;;24.55;39.70;98321.14;1876810;75;28250;-48
2023/01/09 02:32:58;;;;;;;1.80;1.20;;;;;;;24.52;39.72;98333.49;1880791;75;28126;-52
2023/01/09 02:35:52;;;;;;;1.57;1.13;;;;;;;24.49;39.83;98340.90;1872518;75;28126;-48
2023/01/09 02:38:43;;;;;;;2.53;1.40;;;;;;;24.53;39.81;98351.59;1883844;75;28069;-47
2023/01/09 02:41:34;;;;;;;0.95;0.95;;;;;;;24.51;39.83;98351.59;1875209;75;28102;-49
2023/01/09 02:44:26;;;;;;;1.87;1.22;;;;;;;24.56;39.84;98352.97;1876518;75;28242;-47
2023/01/09 02:47:23;;;;;;;1.72;1.10;;;;;;;24.57;39.83;98355.46;1873491;75;28112;-45
2023/01/09 02:50:24;;;;;;;1.85;1.20;;;;;;;24.58;39.87;98354.34;1882472;75;28224;-49
2023/01/09 02:53:21;;;;;;;1.82;1.00;;;;;;;24.59;39.82;98342.82;1880063;75;28111;-47
2023/01/09 02:56:29;;;;;;;2.20;1.20;;;;;;;24.56;39.91;98351.05;1883409;75;28088;-46
2023/01/09 02:59:36;;;;;;;2.00;1.20;;;;;;;24.56;39.88;98344.19;1874297;75;28142;-50
2023/01/09 03:02:45;;;;;;;1.20;1.10;;;;;;;24.52;39.93;98345.02;1884412;75;28148;-46
2023/01/09 03:05:39;;;;;;;2.05;1.12;;;;;;;24.50;39.99;98359.03;1877697;75;28165;-48
2023/01/09 03:08:36;;;;;;;1.80;1.00;;;;;;;24.52;39.98;98360.95;1849522;76;31140;-46
2023/01/09 03:11:27;;;;;;;1.15;1.00;;;;;;;24.52;40.05;98361.48;1868216;76;28118;-47
2023/01/09 03:14:19;;;;;;;2.10;1.07;;;;;;;24.56;39.97;98353.80;1878663;74;28142;-45
2023/01/09 03:17:11;;;;;;;1.30;1.20;;;;;;;24.53;40.04;98359.83;1868616;76;28318;-46
2023/01/09 03:20:02;;;;;;;1.20;1.10;;;;;;;24.55;40.00;98363.70;1870288;74;28117;-47
2023/01/09 03:22:59;;;;;;;1.70;1.15;;;;;;;24.53;40.02;98363.95;1868386;76;28207;-48
2023/01/09 03:25:47;;;;;;;2.37;1.10;;;;;;;24.52;40.04;98367.81;1865067;76;28166;-48
2023/01/09 03:28:35;;;;;;;1.37;0.90;;;;;;;24.52;40.04;98365.06;1865903;75;28151;-45
2023/01/09 03:31:24;;;;;;;1.07;1.07;;;;;;;24.55;40.03;98374.11;1868618;76;28090;-49
2023/01/09 03:34:12;;;;;;;1.65;1.27;;;;;;;24.53;40.04;98361.20;1850883;74;28212;-48
2023/01/09 03:37:03;;;;;;;0.95;0.80;;;;;;;24.55;39.99;98356.83;1854499;75;28272;-48
2023/01/09 03:39:50;;;;;;;1.20;1.10;;;;;;;24.53;40.00;98361.20;1868408;74;28145;-47
2023/01/09 03:42:39;;;;;;;1.30;1.20;;;;;;;24.52;40.05;98368.36;1862914;76;28125;-46
2023/01/09 03:45:27;;;;;;;2.63;0.93;;;;;;;24.54;40.01;98371.11;1868091;76;28133;-46
2023/01/09 03:48:16;;;;;;;1.10;1.10;;;;;;;24.56;39.96;98377.14;1862816;75;28107;-50
2023/01/09 03:51:04;;;;;;;0.95;0.95;;;;;;;24.48;39.95;98366.69;1864689;76;28138;-47
2023/01/09 03:53:53;;;;;;;1.75;0.90;;;;;;;24.56;39.89;98379.89;1848756;76;28064;-49
2023/01/09 03:56:41;;;;;;;1.02;1.00;;;;;;;24.56;39.96;98389.49;1860965;76;28217;-49
2023/01/09 03:59:30;;;;;;;1.10;1.00;;;;;;;24.59;39.87;98386.75;1860309;74;28250;-46
2023/01/09 04:02:19;;;;;;;0.95;0.95;;;;;;;24.58;39.89;98381.80;1860597;76;28067;-47
2023/01/09 04:05:08;;;;;;;0.80;0.80;;;;;;;24.57;39.92;98380.17;1838637;75;28291;-50
2023/01/09 04:07:56;;;;;;;0.90;0.90;;;;;;;24.55;39.93;98387.03;1854430;75;28171;-52
2023/01/09 04:10:47;;;;;;;1.10;1.07;;;;;;;24.54;39.93;98379.34;1856808;76;28210;-49
2023/01/09 04:13:35;;;;;;;1.00;1.00;;;;;;;24.53;39.96;98380.97;1848151;75;28240;-52
2023/01/09 04:16:23;;;;;;;1.67;1.02;;;;;;;24.52;39.96;98380.17;1836939;77;28212;-48
2023/01/09 04:19:11;;;;;;;1.10;1.00;;;;;;;24.56;39.92;98376.31;1876376;74;28221;-47
2023/01/09 04:22:00;;;;;;;1.20;0.90;;;;;;;24.55;39.84;98376.84;1868641;76;28166;-47
2023/01/09 04:24:48;;;;;;;0.90;0.90;;;;;;;24.51;39.90;98378.51;1852973;74;28130;-49
2023/01/09 04:27:37;;;;;;;0.80;0.80;;;;;;;24.53;39.89;98376.84;1856637;76;28073;-47
2023/01/09 04:30:25;;;;;;;1.17;1.07;;;;;;;24.51;39.84;98384.00;1841726;77;28153;-49
2023/01/09 04:33:13;;;;;;;3.30;1.10;;;;;;;24.51;39.87;98382.63;1832699;77;28147;-48
2023/01/09 04:36:01;;;;;;;2.77;1.05;;;;;;;24.51;39.90;98388.11;1867674;76;28234;-52
2023/01/09 04:38:50;;;;;;;0.75;0.75;;;;;;;24.52;39.84;98393.06;1855759;77;28122;-47
2023/01/09 04:41:51;;;;;;;1.60;0.90;;;;;;;24.50;39.80;98394.72;1867156;76;28095;-47
2023/01/09 04:44:39;;;;;;;1.10;1.00;;;;;;;24.50;39.83;98411.73;1844758;77;28101;-47
2023/01/09 04:47:29;;;;;;;0.72;0.72;;;;;;;24.48;39.90;98413.94;1851563;76;28169;-51
2023/01/09 04:50:17;;;;;;;0.88;0.88;;;;;;;24.51;39.82;98429.84;1869587;74;28187;-48
2023/01/09 04:53:05;;;;;;;0.95;0.70;;;;;;;24.46;39.88;98427.08;1862834;76;28017;-52
2023/01/09 04:55:54;;;;;;;0.93;0.90;;;;;;;24.47;39.93;98427.38;1855461;75;28078;-47
2023/01/09 04:58:42;;;;;;;1.72;1.05;;;;;;;24.47;39.92;98419.97;1839482;76;28082;-49
2023/01/09 05:01:30;;;;;;;1.50;0.80;;;;;;;24.44;39.90;98429.28;1847190;76;28182;-50
2023/01/09 05:04:19;;;;;;;1.25;0.90;;;;;;;24.48;39.88;98435.32;1882877;74;28016;-47
2023/01/09 05:07:07;;;;;;;0.88;0.88;;;;;;;24.46;39.91;98438.89;1843174;75;28176;-50
2023/01/09 05:09:56;;;;;;;1.20;0.80;;;;;;;24.47;39.89;98443.30;1868927;76;28109;-47
2023/01/09 05:12:44;;;;;;;0.93;0.90;;;;;;;24.47;39.86;98436.98;1857886;76;28097;-49
2023/01/09 05:15:32;;;;;;;1.30;0.80;;;;;;;24.46;39.83;98447.67;1886715;74;28177;-46
2023/01/09 05:18:21;;;;;;;1.07;0.80;;;;;;;24.44;39.89;98440.26;1873769;75;28149;-46
2023/01/09 05:21:09;;;;;;;1.00;0.80;;;;;;;24.43;39.90;98450.44;1877509;76;28133;-50
2023/01/09 05:23:58;;;;;;;0.90;0.90;;;;;;;24.43;39.81;98465.53;1874441;75;28170;-47
2023/01/09 05:26:46;;;;;;;2.05;0.93;;;;;;;24.43;39.91;98469.66;1877800;76;32058;-46
2023/01/09 05:29:35;;;;;;;0.85;0.65;;;;;;;24.42;39.86;98475.39;1864247;76;28121;-47
2023/01/09 05:32:23;;;;;;;1.20;0.90;;;;;;;24.43;39.85;98473.77;1876091;75;28063;-48
2023/01/09 05:35:12;;;;;;;2.00;0.90;;;;;;;24.41;39.88;98479.25;1870410;76;28483;-47
2023/01/09 05:38:00;;;;;;;1.80;0.90;;;;;;;24.43;39.85;98486.13;1864051;76;28160;-47
2023/01/09 05:40:49;;;;;;;0.85;0.85;;;;;;;24.38;39.81;98486.11;1811700;78;28250;-45
2023/01/09 05:43:37;;;;;;;0.80;0.80;;;;;;;24.39;39.87;98495.97;1818921;77;28317;-48
2023/01/09 05:46:26;;;;;;;1.30;0.70;;;;;;;24.38;39.92;98501.20;1825164;78;28354;-47
2023/01/09 05:49:14;;;;;;;0.90;0.80;;;;;;;24.39;39.91;98503.38;1819225;78;28352;-47
2023/01/09 05:52:03;;;;;;;2.10;0.82;;;;;;;24.39;39.90;98506.95;1830562;78;28325;-47
2023/01/09 05:54:52;;;;;;;0.80;0.80;;;;;;;24.41;39.87;98516.31;1831256;77;28279;-45
2023/01/09 05:57:41;;;;;;;0.70;0.70;;;;;;;24.38;39.86;98527.28;1820869;78;28304;-50
2023/01/09 06:00:29;;;;;;;2.50;1.00;;;;;;;24.37;39.91;98542.09;1813662;78;28303;-47
2023/01/09 06:03:17;;;;;;;0.62;0.62;;;;;;;24.39;39.92;98563.23;1873593;75;38421;-47
2023/01/09 06:06:06;;;;;;;0.98;0.78;;;;;;;24.39;39.93;98557.73;1818547;78;28297;-46
2023/01/09 06:08:55;;;;;;;1.13;0.60;;;;;;;24.41;39.91;98562.41;1803253;77;28248;-46
2023/01/09 06:11:43;;;;;;;1.37;0.60;;;;;;;24.36;39.91;98558.30;1791738;79;28384;-50
2023/01/09 06:14:31;;;;;;;1.40;0.70;;;;;;;24.38;39.91;98568.45;1856295;76;28130;-51
2023/01/09 06:17:19;;;;;;;0.70;0.60;;;;;;;24.36;39.97;98586.28;1868191;76;28070;-48
2023/01/09 06:20:09;;;;;;;1.27;0.72;;;;;;;24.37;39.93;98587.91;1857429;76;28215;-48
2023/01/09 06:22:58;;;;;;;2.25;0.70;;;;;;;24.36;39.88;98587.12;1853734;76;28144;-50
2023/01/09 06:25:47;;;;;;;0.95;0.72;;;;;;;24.36;39.85;98586.28;1852284;77;28133;-47
2023/01/09 06:28:35;;;;;;;0.80;0.60;;;;;;;24.36;39.76;98583.00;1851463;76;28109;-49
2023/01/09 06:31:25;;;;;;;0.70;0.60;;;;;;;24.34;39.82;98581.61;1858385;76;28178;-46
2023/01/09 06:34:13;;;;;;;0.68;0.68;;;;;;;24.36;39.72;98582.17;1845399;75;28281;-46
2023/01/09 06:37:02;;;;;;;0.70;0.70;;;;;;;24.36;39.70;98588.48;1859436;76;28083;-49
2023/01/09 06:39:50;;;;;;;0.85;0.78;;;;;;;24.35;39.68;98592.31;1868181;76;28254;-46
2023/01/09 06:42:39;;;;;;;1.30;0.70;;;;;;;24.38;39.78;98592.33;1849836;77;28371;-53
2023/01/09 06:45:26;;;;;;;0.80;0.68;;;;;;;24.41;39.74;98591.80;1883401;74;28127;-48
2023/01/09 06:48:15;;;;;;;1.30;0.50;;;;;;;24.43;39.49;98589.07;1850729;76;28040;-54
2023/01/09 06:51:04;;;;;;;0.53;0.53;;;;;;;24.41;38.88;98600.03;1855592;77;28207;-49
2023/01/09 06:53:52;;;;;;;1.40;0.77;;;;;;;24.45;38.43;98597.86;1848176;77;28580;-50
2023/01/09 06:56:40;;;;;;;1.77;0.98;;;;;;;24.43;37.56;98617.06;1856925;76;28086;-48
2023/01/09 06:59:29;;;;;;;0.60;0.60;;;;;;;24.43;37.33;98616.52;1868458;76;28626;-54
2023/01/09 07:02:22;;;;;;;0.68;0.68;;;;;;;24.36;37.36;98607.70;1868696;75;28189;-51
2023/01/09 07:05:10;;;;;;;1.12;0.80;;;;;;;24.40;37.79;98628.56;1855219;76;28040;-52
